FKQ YPDN-YPDN
Flight info
| Callsign | FKQ |
|---|---|
| Flight time | 0h 3m |
| Altitude | 1000 |
| Route | DCT |
| Aircraft | BL8/L-VGD/A |
Departure
| Time | 2026-04-29 12:09 |
|---|---|
| Airport | Darwin International Airport / RAAF Darwin (YPDN) |
Arrival
| Time | 2026-04-29 12:12 |
|---|---|
| Airport | Darwin International Airport / RAAF Darwin (YPDN) |
| Time | Latitude | Longitude | Altitude | Speed | Heading |
|---|---|---|---|---|---|
| 2026-04-29 11:58 | -12.40333 | 130.87353 | 58 ft | 1 kts | 341° |
| 2026-04-29 11:58 | -12.40332 | 130.87352 | 58 ft | 0 kts | 338° |
| 2026-04-29 11:58 | -12.40321 | 130.87345 | 63 ft | 4 kts | 306° |
| 2026-04-29 11:58 | -12.40316 | 130.87332 | 61 ft | 1 kts | 279° |
| 2026-04-29 11:59 | -12.40323 | 130.87314 | 60 ft | 1 kts | 215° |
| 2026-04-29 11:59 | -12.40323 | 130.87313 | 60 ft | 0 kts | 216° |
| 2026-04-29 12:00 | -12.40352 | 130.87311 | 63 ft | 3 kts | 182° |
| 2026-04-29 12:00 | -12.40357 | 130.87310 | 65 ft | 0 kts | 189° |
| 2026-04-29 12:01 | -12.40366 | 130.87310 | 68 ft | 0 kts | 199° |
| 2026-04-29 12:01 | -12.40394 | 130.87305 | 71 ft | 22 kts | 187° |
| 2026-04-29 12:01 | -12.40531 | 130.87268 | 81 ft | 18 kts | 214° |
| 2026-04-29 12:01 | -12.40670 | 130.87252 | 87 ft | 29 kts | 181° |
| 2026-04-29 12:02 | -12.40871 | 130.87252 | 92 ft | 26 kts | 180° |
| 2026-04-29 12:02 | -12.40974 | 130.87206 | 91 ft | 18 kts | 276° |
| 2026-04-29 12:02 | -12.40920 | 130.87059 | 88 ft | 22 kts | 290° |
| 2026-04-29 12:02 | -12.40922 | 130.86945 | 96 ft | 14 kts | 207° |
| 2026-04-29 12:03 | -12.40952 | 130.86938 | 97 ft | 0 kts | 181° |
| 2026-04-29 12:04 | -12.40957 | 130.86938 | 97 ft | 4 kts | 182° |
| 2026-04-29 12:04 | -12.41053 | 130.86872 | 97 ft | 27 kts | 280° |
| 2026-04-29 12:04 | -12.40986 | 130.86665 | 103 ft | 34 kts | 297° |
| 2026-04-29 12:04 | -12.40941 | 130.86533 | 106 ft | 0 kts | 85° |
| 2026-04-29 12:05 | -12.40941 | 130.86535 | 106 ft | 0 kts | 111° |
| 2026-04-29 12:05 | -12.41075 | 130.86889 | 119 ft | 92 kts | 141° |
| 2026-04-29 12:05 | -12.41315 | 130.87572 | 105 ft | 107 kts | 139° |
| 2026-04-29 12:06 | -12.41571 | 130.88328 | 98 ft | 130 kts | 108° |
| 2026-04-29 12:06 | -12.41614 | 130.88545 | 1323 ft | 4 kts | 68° |
| 2026-04-29 12:06 | -12.41511 | 130.88310 | 289 ft | 109 kts | 283° |
| 2026-04-29 12:06 | -12.41260 | 130.87395 | 214 ft | 145 kts | 288° |
| 2026-04-29 12:07 | -12.40975 | 130.86498 | 619 ft | 16 kts | 64° |
| 2026-04-29 12:07 | -12.40945 | 130.86532 | 1525 ft | 5 kts | 299° |
| 2026-04-29 12:07 | -12.41045 | 130.86900 | 410 ft | 124 kts | 105° |
| 2026-04-29 12:07 | -12.41347 | 130.87777 | 311 ft | 147 kts | 108° |
| 2026-04-29 12:08 | -12.41703 | 130.88702 | 168 ft | 143 kts | 109° |
| 2026-04-29 12:08 | -12.41600 | 130.88267 | 793 ft | 48 kts | 20° |
| 2026-04-29 12:08 | -12.41295 | 130.87451 | 126 ft | 152 kts | 290° |
| 2026-04-29 12:08 | -12.40955 | 130.86578 | 573 ft | 16 kts | 83° |
| 2026-04-29 12:09 | -12.41287 | 130.87365 | 354 ft | 62 kts | 113° |
| 2026-04-29 12:09 | -12.41335 | 130.87372 | 138 ft | 144 kts | 109° |
| 2026-04-29 12:09 | -12.41386 | 130.87484 | 755 ft | 13 kts | 306° |
| 2026-04-29 12:09 | -12.41549 | 130.87837 | 1089 ft | 61 kts | 285° |
| 2026-04-29 12:10 | -12.41670 | 130.88088 | 114 ft | 140 kts | 110° |
| 2026-04-29 12:10 | -12.41679 | 130.88083 | 139 ft | 117 kts | 114° |
| 2026-04-29 12:10 | -12.42314 | 130.88543 | 394 ft | 140 kts | 166° |
| 2026-04-29 12:10 | -12.42591 | 130.89322 | 312 ft | 112 kts | 30° |
| 2026-04-29 12:11 | -12.41916 | 130.89522 | 112 ft | 106 kts | 318° |
| 2026-04-29 12:11 | -12.41697 | 130.88721 | 158 ft | 141 kts | 288° |
| 2026-04-29 12:11 | -12.41440 | 130.87874 | 122 ft | 112 kts | 288° |
| 2026-04-29 12:11 | -12.41192 | 130.87153 | 295 ft | 94 kts | 292° |
| 2026-04-29 12:12 | -12.41000 | 130.86644 | 961 ft | 58 kts | 296° |
| 2026-04-29 12:12 | -12.41298 | 130.87427 | 113 ft | 153 kts | 110° |
| 2026-04-29 12:12 | -12.41392 | 130.87599 | 1262 ft | 88 kts | 283° |
| 2026-04-29 12:12 | -12.41490 | 130.87654 | 502 ft | 37 kts | 114° |
| 2026-04-29 12:13 | -12.41653 | 130.88249 | 572 ft | 115 kts | 106° |
| 2026-04-29 12:13 | -12.41812 | 130.88757 | 1247 ft | 45 kts | 288° |
| 2026-04-29 12:13 | -12.42123 | 130.88745 | 1855 ft | 71 kts | 92° |
| 2026-04-29 12:13 | -12.41746 | 130.88572 | 570 ft | 145 kts | 296° |
| 2026-04-29 12:14 | -12.41418 | 130.87796 | 181 ft | 113 kts | 290° |
| 2026-04-29 12:14 | -12.41220 | 130.87211 | 125 ft | 116 kts | 287° |
| 2026-04-29 12:14 | -12.41016 | 130.86568 | 819 ft | 64 kts | 108° |
| 2026-04-29 12:14 | -12.41254 | 130.87221 | 104 ft | 141 kts | 110° |
| 2026-04-29 12:15 | -12.41388 | 130.87511 | 183 ft | 142 kts | 239° |
| 2026-04-29 12:15 | -12.41486 | 130.87675 | 249 ft | 141 kts | 121° |
| 2026-04-29 12:15 | -12.41575 | 130.87801 | 1563 ft | 4 kts | 156° |
| 2026-04-29 12:15 | -12.41658 | 130.88165 | 341 ft | 129 kts | 103° |
| 2026-04-29 12:16 | -12.41993 | 130.89065 | 256 ft | 139 kts | 141° |
| 2026-04-29 12:16 | -12.41816 | 130.89032 | 116 ft | 128 kts | 273° |
| 2026-04-29 12:16 | -12.41517 | 130.88140 | 106 ft | 138 kts | 272° |
| 2026-04-29 12:16 | -12.41206 | 130.87204 | 118 ft | 140 kts | 273° |
| 2026-04-29 12:17 | -12.40983 | 130.86528 | 1075 ft | 9 kts | 212° |
| 2026-04-29 12:17 | -12.41039 | 130.86747 | 174 ft | 117 kts | 77° |
| 2026-04-29 12:17 | -12.41215 | 130.87378 | 290 ft | 83 kts | 91° |
| 2026-04-29 12:17 | -12.41395 | 130.87875 | 95 ft | 58 kts | 104° |
| 2026-04-29 12:18 | -12.41451 | 130.88061 | 90 ft | 22 kts | 289° |
| 2026-04-29 12:18 | -12.41332 | 130.88021 | 91 ft | 17 kts | 21° |
| 2026-04-29 12:18 | -12.41318 | 130.88026 | 91 ft | 1 kts | 17° |
| 2026-04-29 12:18 | -12.41317 | 130.88026 | 91 ft | 0 kts | 17° |
| 2026-04-29 12:19 | -12.41315 | 130.88026 | 91 ft | 0 kts | 14° |
| 2026-04-29 12:20 | -12.41313 | 130.88027 | 92 ft | 8 kts | 18° |
| 2026-04-29 12:20 | -12.41158 | 130.88080 | 93 ft | 31 kts | 17° |
| 2026-04-29 12:20 | -12.41030 | 130.87987 | 90 ft | 25 kts | 288° |
| 2026-04-29 12:20 | -12.40980 | 130.87831 | 92 ft | 22 kts | 282° |
| 2026-04-29 12:21 | -12.40956 | 130.87685 | 88 ft | 21 kts | 269° |
| 2026-04-29 12:21 | -12.41035 | 130.87590 | 91 ft | 17 kts | 199° |
| 2026-04-29 12:21 | -12.41078 | 130.87507 | 94 ft | 18 kts | 288° |
| 2026-04-29 12:21 | -12.41029 | 130.87362 | 93 ft | 25 kts | 288° |
| 2026-04-29 12:22 | -12.40925 | 130.87250 | 91 ft | 24 kts | 1° |
| 2026-04-29 12:22 | -12.40764 | 130.87246 | 89 ft | 23 kts | 358° |
| 2026-04-29 12:22 | -12.40590 | 130.87249 | 84 ft | 27 kts | 0° |